New Bern, NC

10:04 AM EDT on September 19, 2014 (GMT -0400)
Faifield Harbour | Change Station
CLOSE
Current Station
Personal Weather Station
Location: New Bern, NC
Elevation: 13 ft
Nearby Weather Stations

Elev 13 ft 35.08 °N, 76.96 °W | Updated 0 second ago

Clear
Clear
75.4 °F
Feels Like 77 °F
N
8.3
Wind Variable Wind from East
Gusts 12.1 mph

Today
High -- | Low -- °F
--% Chance of Precip.
Yesterday
High -- | Low -- °F
Precip. -- in
6:53 AM 7:09 PM
Waning Crescent, 19% visible
Pressure 30.15 in
Visibility 10.0 miles
Clouds Clear
Heat Index 77 °F
Dew Point 64 °F
Humidity 68%
Rainfall 0.00 in
Snow Depth Not available.
UV 1 out of 12
Pollen 7.60 out of 12
Air Quality Not available.
Flu Activity Not available.
METAR KEWN 191154Z 05007KT 10SM CLR 21/16 A3015 RMK AO2 SLP210 T02060161 10206 20183 53019

More Conditions Fewer Conditions

Pressure 30.15 in
Visibility 10.0 miles
Clouds Clear
Heat Index 77 °F
Dew Point 64 °F
Humidity 68%
Rainfall 0.00 in
Snow Depth Not available.
UV 1 out of 12
Pollen 7.60 out of 12
Air Quality Not available.
Flu Activity Not available.
METAR KEWN 191154Z 05007KT 10SM CLR 21/16 A3015 RMK AO2 SLP210 T02060161 10206 20183 53019

More Conditions Fewer Conditions

10-Day Weather Forecast

Almanac

Astronomy

Sep. 19, 2014 Rise Set
Actual Time 6:53 AM EDT 7:09 PM EDT
Civil Twilight 6:28 AM EDT 7:34 PM EDT
Nautical Twilight 5:58 AM EDT 8:04 PM EDT
Astronomical Twilight 5:28 AM EDT 8:34 PM EDT
Moon 2:44 AM EDT 4:30 PM EDT
Length of Visible Light 13h 06m
Length of Day
12h 15m
Tomorrow will be 2m 11s shorter.
Waning Crescent, 19% of the Moon is Illuminated
Today
Waning Crescent
Sep 24
New
Oct 1
First Quarter
Oct 8
Full
Oct 15
Last Quarter

Today's Extremes

State Highs State Lows

Community

WunderPhotos

Upload Photos

1,754,614 photos uploaded!

WunderBlogs® & News

Nearby

Snow Depth

Station Depth Elevation
No new snow has been reported.

Earthquake Activity

City Distance Mag. Time & Date
No recent earthquake activity has been reported nearby.
Minimum magnitude displayed is 2.5.

Coastal Water Temperatures

Place Temperature
No Stations Reporting

Nearby Weather Stations